sensor_id;sensor_type;location;lat;lon;timestamp;temperature;humidity
65406;DHT22;52016;51.228;-2.322;2022-11-18T00:02:24;9.40;74.50
65406;DHT22;52016;51.228;-2.322;2022-11-18T00:06:10;9.40;74.60
65406;DHT22;52016;51.228;-2.322;2022-11-18T00:09:52;9.40;74.70
65406;DHT22;52016;51.228;-2.322;2022-11-18T00:13:36;9.40;74.70
65406;DHT22;52016;51.228;-2.322;2022-11-18T00:17:37;9.40;74.80
65406;DHT22;52016;51.228;-2.322;2022-11-18T00:21:18;9.40;74.90
65406;DHT22;52016;51.228;-2.322;2022-11-18T00:25:00;9.40;74.90
65406;DHT22;52016;51.228;-2.322;2022-11-18T00:28:42;9.30;75.00
65406;DHT22;52016;51.228;-2.322;2022-11-18T00:32:24;9.30;75.10
65406;DHT22;52016;51.228;-2.322;2022-11-18T00:36:08;9.30;75.30
65406;DHT22;52016;51.228;-2.322;2022-11-18T00:39:51;9.30;75.50
65406;DHT22;52016;51.228;-2.322;2022-11-18T00:43:33;9.30;75.50
65406;DHT22;52016;51.228;-2.322;2022-11-18T00:47:15;9.30;75.60
65406;DHT22;52016;51.228;-2.322;2022-11-18T00:51:04;9.30;75.60
65406;DHT22;52016;51.228;-2.322;2022-11-18T00:54:46;9.30;75.70
65406;DHT22;52016;51.228;-2.322;2022-11-18T00:58:28;9.30;75.80
65406;DHT22;52016;51.228;-2.322;2022-11-18T01:02:10;9.30;75.70
65406;DHT22;52016;51.228;-2.322;2022-11-18T01:05:52;9.20;75.90
65406;DHT22;52016;51.228;-2.322;2022-11-18T01:09:34;9.20;75.90
65406;DHT22;52016;51.228;-2.322;2022-11-18T01:13:18;9.10;76.10
65406;DHT22;52016;51.228;-2.322;2022-11-18T01:17:00;9.20;76.00
65406;DHT22;52016;51.228;-2.322;2022-11-18T01:20:43;9.20;76.00
65406;DHT22;52016;51.228;-2.322;2022-11-18T01:24:25;9.10;76.00
65406;DHT22;52016;51.228;-2.322;2022-11-18T01:31:47;9.10;76.20
65406;DHT22;52016;51.228;-2.322;2022-11-18T01:35:49;9.10;76.10
65406;DHT22;52016;51.228;-2.322;2022-11-18T01:39:30;9.10;76.10
65406;DHT22;52016;51.228;-2.322;2022-11-18T01:43:14;9.10;76.30
65406;DHT22;52016;51.228;-2.322;2022-11-18T01:46:56;9.10;76.20
65406;DHT22;52016;51.228;-2.322;2022-11-18T01:50:42;9.00;76.30
65406;DHT22;52016;51.228;-2.322;2022-11-18T01:54:29;9.10;76.40
65406;DHT22;52016;51.228;-2.322;2022-11-18T01:58:17;9.10;76.40
65406;DHT22;52016;51.228;-2.322;2022-11-18T02:02:06;9.10;76.80
65406;DHT22;52016;51.228;-2.322;2022-11-18T02:05:51;9.10;76.50
65406;DHT22;52016;51.228;-2.322;2022-11-18T02:09:36;9.00;76.40
65406;DHT22;52016;51.228;-2.322;2022-11-18T02:13:18;9.10;76.40
65406;DHT22;52016;51.228;-2.322;2022-11-18T02:17:25;9.10;76.40
65406;DHT22;52016;51.228;-2.322;2022-11-18T02:25:27;9.00;76.60
65406;DHT22;52016;51.228;-2.322;2022-11-18T02:29:18;9.00;76.70
65406;DHT22;52016;51.228;-2.322;2022-11-18T02:33:07;9.00;76.60
65406;DHT22;52016;51.228;-2.322;2022-11-18T02:36:56;9.00;76.60
65406;DHT22;52016;51.228;-2.322;2022-11-18T02:40:48;9.00;76.70
65406;DHT22;52016;51.228;-2.322;2022-11-18T02:44:33;8.90;76.70
65406;DHT22;52016;51.228;-2.322;2022-11-18T02:48:19;8.90;76.80
65406;DHT22;52016;51.228;-2.322;2022-11-18T02:52:03;9.00;76.80
65406;DHT22;52016;51.228;-2.322;2022-11-18T02:55:47;8.90;77.00
65406;DHT22;52016;51.228;-2.322;2022-11-18T02:59:30;8.90;77.00
65406;DHT22;52016;51.228;-2.322;2022-11-18T03:03:32;8.90;77.40
65406;DHT22;52016;51.228;-2.322;2022-11-18T03:07:28;8.90;77.70
65406;DHT22;52016;51.228;-2.322;2022-11-18T03:11:17;8.90;77.20
65406;DHT22;52016;51.228;-2.322;2022-11-18T03:19:07;8.90;77.20
65406;DHT22;52016;51.228;-2.322;2022-11-18T03:23:06;8.90;77.10
65406;DHT22;52016;51.228;-2.322;2022-11-18T03:26:55;8.90;77.00
65406;DHT22;52016;51.228;-2.322;2022-11-18T03:31:12;8.80;77.00
65406;DHT22;52016;51.228;-2.322;2022-11-18T03:35:02;8.90;76.90
65406;DHT22;52016;51.228;-2.322;2022-11-18T03:38:49;8.80;76.80
65406;DHT22;52016;51.228;-2.322;2022-11-18T03:42:43;8.90;76.70
65406;DHT22;52016;51.228;-2.322;2022-11-18T03:46:34;8.80;76.80
65406;DHT22;52016;51.228;-2.322;2022-11-18T03:50:21;8.80;76.80
65406;DHT22;52016;51.228;-2.322;2022-11-18T03:54:21;8.80;76.90
65406;DHT22;52016;51.228;-2.322;2022-11-18T03:58:24;8.80;77.00
65406;DHT22;52016;51.228;-2.322;2022-11-18T04:02:41;8.80;76.90
65406;DHT22;52016;51.228;-2.322;2022-11-18T04:14:17;8.80;77.00
65406;DHT22;52016;51.228;-2.322;2022-11-18T04:18:01;8.80;77.10
65406;DHT22;52016;51.228;-2.322;2022-11-18T04:21:42;8.80;77.30
65406;DHT22;52016;51.228;-2.322;2022-11-18T04:25:24;8.80;77.40
65406;DHT22;52016;51.228;-2.322;2022-11-18T04:29:06;8.80;77.30
65406;DHT22;52016;51.228;-2.322;2022-11-18T04:32:48;8.80;77.40
65406;DHT22;52016;51.228;-2.322;2022-11-18T04:36:30;8.90;77.40
65406;DHT22;52016;51.228;-2.322;2022-11-18T04:40:12;8.80;78.10
65406;DHT22;52016;51.228;-2.322;2022-11-18T04:43:53;8.80;77.60
65406;DHT22;52016;51.228;-2.322;2022-11-18T04:47:35;8.80;77.70
65406;DHT22;52016;51.228;-2.322;2022-11-18T04:51:17;8.80;77.80
65406;DHT22;52016;51.228;-2.322;2022-11-18T04:54:59;8.80;77.90
65406;DHT22;52016;51.228;-2.322;2022-11-18T04:58:41;8.80;77.90
65406;DHT22;52016;51.228;-2.322;2022-11-18T05:02:23;8.80;77.90
65406;DHT22;52016;51.228;-2.322;2022-11-18T05:06:04;8.80;77.90
65406;DHT22;52016;51.228;-2.322;2022-11-18T05:09:46;8.70;77.90
65406;DHT22;52016;51.228;-2.322;2022-11-18T05:13:28;8.70;77.90
65406;DHT22;52016;51.228;-2.322;2022-11-18T05:17:10;8.70;78.40
65406;DHT22;52016;51.228;-2.322;2022-11-18T05:20:52;8.70;78.10
65406;DHT22;52016;51.228;-2.322;2022-11-18T05:24:34;8.70;78.00
65406;DHT22;52016;51.228;-2.322;2022-11-18T05:28:16;8.70;78.00
65406;DHT22;52016;51.228;-2.322;2022-11-18T05:31:58;8.60;77.90
65406;DHT22;52016;51.228;-2.322;2022-11-18T05:35:39;8.60;77.90
65406;DHT22;52016;51.228;-2.322;2022-11-18T05:39:21;8.60;77.90
65406;DHT22;52016;51.228;-2.322;2022-11-18T05:43:03;8.60;77.90
65406;DHT22;52016;51.228;-2.322;2022-11-18T05:46:54;8.60;78.00
65406;DHT22;52016;51.228;-2.322;2022-11-18T05:50:37;8.60;77.90
65406;DHT22;52016;51.228;-2.322;2022-11-18T05:54:19;8.60;78.00
65406;DHT22;52016;51.228;-2.322;2022-11-18T05:58:02;8.50;78.00
65406;DHT22;52016;51.228;-2.322;2022-11-18T06:05:30;8.50;78.10
65406;DHT22;52016;51.228;-2.322;2022-11-18T06:09:15;8.40;78.30
65406;DHT22;52016;51.228;-2.322;2022-11-18T06:13:02;8.40;78.20
65406;DHT22;52016;51.228;-2.322;2022-11-18T06:16:49;8.40;78.30
65406;DHT22;52016;51.228;-2.322;2022-11-18T06:20:33;8.40;78.30
65406;DHT22;52016;51.228;-2.322;2022-11-18T06:24:17;8.30;78.30
65406;DHT22;52016;51.228;-2.322;2022-11-18T06:27:59;8.30;78.60
65406;DHT22;52016;51.228;-2.322;2022-11-18T06:31:42;8.30;78.60
65406;DHT22;52016;51.228;-2.322;2022-11-18T06:35:24;8.20;78.60
65406;DHT22;52016;51.228;-2.322;2022-11-18T06:39:06;8.20;78.60
65406;DHT22;52016;51.228;-2.322;2022-11-18T06:42:48;8.20;78.60
65406;DHT22;52016;51.228;-2.322;2022-11-18T06:46:48;8.20;78.60
65406;DHT22;52016;51.228;-2.322;2022-11-18T06:50:36;8.10;78.70
65406;DHT22;52016;51.228;-2.322;2022-11-18T06:54:18;8.10;78.60
65406;DHT22;52016;51.228;-2.322;2022-11-18T06:58:00;8.10;78.70
65406;DHT22;52016;51.228;-2.322;2022-11-18T07:01:42;8.00;78.80
65406;DHT22;52016;51.228;-2.322;2022-11-18T07:05:23;8.00;78.90
65406;DHT22;52016;51.228;-2.322;2022-11-18T07:09:06;8.00;78.80
65406;DHT22;52016;51.228;-2.322;2022-11-18T07:12:47;8.00;78.70
65406;DHT22;52016;51.228;-2.322;2022-11-18T07:16:29;7.90;78.80
65406;DHT22;52016;51.228;-2.322;2022-11-18T07:20:11;7.90;78.90
65406;DHT22;52016;51.228;-2.322;2022-11-18T07:23:54;7.80;79.00
65406;DHT22;52016;51.228;-2.322;2022-11-18T07:27:36;7.90;79.00
65406;DHT22;52016;51.228;-2.322;2022-11-18T07:31:19;7.90;79.10
65406;DHT22;52016;51.228;-2.322;2022-11-18T07:35:01;7.90;79.10
65406;DHT22;52016;51.228;-2.322;2022-11-18T07:38:43;7.90;79.30
65406;DHT22;52016;51.228;-2.322;2022-11-18T07:42:24;8.00;79.40
65406;DHT22;52016;51.228;-2.322;2022-11-18T07:46:35;8.10;79.30
65406;DHT22;52016;51.228;-2.322;2022-11-18T07:50:16;8.10;79.30
65406;DHT22;52016;51.228;-2.322;2022-11-18T07:53:58;8.20;79.20
65406;DHT22;52016;51.228;-2.322;2022-11-18T07:57:40;8.20;79.20
65406;DHT22;52016;51.228;-2.322;2022-11-18T08:01:23;8.10;79.20
65406;DHT22;52016;51.228;-2.322;2022-11-18T08:05:06;8.10;79.20
65406;DHT22;52016;51.228;-2.322;2022-11-18T08:08:48;8.10;79.20
65406;DHT22;52016;51.228;-2.322;2022-11-18T08:12:30;8.10;79.30
65406;DHT22;52016;51.228;-2.322;2022-11-18T08:16:23;8.10;79.40
65406;DHT22;52016;51.228;-2.322;2022-11-18T08:20:05;8.00;79.40
65406;DHT22;52016;51.228;-2.322;2022-11-18T08:23:52;8.00;79.20
65406;DHT22;52016;51.228;-2.322;2022-11-18T08:27:34;7.90;79.20
65406;DHT22;52016;51.228;-2.322;2022-11-18T08:31:18;7.90;79.30
65406;DHT22;52016;51.228;-2.322;2022-11-18T08:35:00;7.90;79.30
65406;DHT22;52016;51.228;-2.322;2022-11-18T08:42:47;7.90;79.60
65406;DHT22;52016;51.228;-2.322;2022-11-18T08:46:29;8.00;79.60
65406;DHT22;52016;51.228;-2.322;2022-11-18T08:50:11;8.10;79.60
65406;DHT22;52016;51.228;-2.322;2022-11-18T08:53:53;8.10;79.60
65406;DHT22;52016;51.228;-2.322;2022-11-18T08:57:35;8.30;79.80
65406;DHT22;52016;51.228;-2.322;2022-11-18T09:01:17;8.40;79.70
65406;DHT22;52016;51.228;-2.322;2022-11-18T09:04:59;8.60;79.60
65406;DHT22;52016;51.228;-2.322;2022-11-18T09:08:43;8.70;79.60
65406;DHT22;52016;51.228;-2.322;2022-11-18T09:12:25;8.80;79.50
65406;DHT22;52016;51.228;-2.322;2022-11-18T09:16:06;8.90;79.40
65406;DHT22;52016;51.228;-2.322;2022-11-18T09:19:49;9.00;79.40
65406;DHT22;52016;51.228;-2.322;2022-11-18T09:23:32;9.00;79.40
65406;DHT22;52016;51.228;-2.322;2022-11-18T09:27:14;9.00;79.40
65406;DHT22;52016;51.228;-2.322;2022-11-18T09:31:17;9.10;79.40
65406;DHT22;52016;51.228;-2.322;2022-11-18T09:34:59;9.20;79.30
65406;DHT22;52016;51.228;-2.322;2022-11-18T09:38:41;9.30;79.30
65406;DHT22;52016;51.228;-2.322;2022-11-18T09:42:46;9.40;79.20
65406;DHT22;52016;51.228;-2.322;2022-11-18T09:50:40;9.60;78.90
65406;DHT22;52016;51.228;-2.322;2022-11-18T09:54:34;9.70;78.80
65406;DHT22;52016;51.228;-2.322;2022-11-18T09:58:34;9.70;78.60
65406;DHT22;52016;51.228;-2.322;2022-11-18T10:06:27;9.80;78.50
65406;DHT22;52016;51.228;-2.322;2022-11-18T10:10:16;9.80;78.50
65406;DHT22;52016;51.228;-2.322;2022-11-18T10:17:48;9.80;78.50
65406;DHT22;52016;51.228;-2.322;2022-11-18T10:25:29;9.90;78.30
65406;DHT22;52016;51.228;-2.322;2022-11-18T10:29:11;9.90;78.20
65406;DHT22;52016;51.228;-2.322;2022-11-18T10:33:03;9.90;78.20
65406;DHT22;52016;51.228;-2.322;2022-11-18T10:37:12;10.00;78.30
65406;DHT22;52016;51.228;-2.322;2022-11-18T10:41:05;10.10;78.00
65406;DHT22;52016;51.228;-2.322;2022-11-18T10:44:49;10.20;77.90
65406;DHT22;52016;51.228;-2.322;2022-11-18T10:48:30;10.20;77.70
65406;DHT22;52016;51.228;-2.322;2022-11-18T10:52:13;10.30;77.70
65406;DHT22;52016;51.228;-2.322;2022-11-18T10:56:03;10.40;78.10
65406;DHT22;52016;51.228;-2.322;2022-11-18T10:59:53;10.50;77.70
65406;DHT22;52016;51.228;-2.322;2022-11-18T11:03:37;10.70;77.60
65406;DHT22;52016;51.228;-2.322;2022-11-18T11:07:28;10.80;75.40
65406;DHT22;52016;51.228;-2.322;2022-11-18T11:11:21;10.90;76.90
65406;DHT22;52016;51.228;-2.322;2022-11-18T11:15:13;11.10;77.00
65406;DHT22;52016;51.228;-2.322;2022-11-18T11:18:59;11.30;76.90
65406;DHT22;52016;51.228;-2.322;2022-11-18T11:22:44;11.40;76.70
65406;DHT22;52016;51.228;-2.322;2022-11-18T11:26:50;11.60;76.70
65406;DHT22;52016;51.228;-2.322;2022-11-18T11:31:13;11.80;72.70
65406;DHT22;52016;51.228;-2.322;2022-11-18T11:46:37;12.90;74.60
65406;DHT22;52016;51.228;-2.322;2022-11-18T11:55:35;13.10;73.20
65406;DHT22;52016;51.228;-2.322;2022-11-18T11:59:43;13.40;71.60
65406;DHT22;52016;51.228;-2.322;2022-11-18T12:03:46;13.50;72.10
65406;DHT22;52016;51.228;-2.322;2022-11-18T12:07:41;13.40;70.80
65406;DHT22;52016;51.228;-2.322;2022-11-18T12:11:43;13.20;71.30
65406;DHT22;52016;51.228;-2.322;2022-11-18T12:19:19;13.10;70.80
65406;DHT22;52016;51.228;-2.322;2022-11-18T12:23:18;12.90;70.70
65406;DHT22;52016;51.228;-2.322;2022-11-18T12:27:54;12.70;69.50
65406;DHT22;52016;51.228;-2.322;2022-11-18T12:38:45;12.40;70.30
65406;DHT22;52016;51.228;-2.322;2022-11-18T12:42:42;12.30;69.80
65406;DHT22;52016;51.228;-2.322;2022-11-18T12:46:46;12.30;69.10
65406;DHT22;52016;51.228;-2.322;2022-11-18T12:50:49;12.20;69.30
65406;DHT22;52016;51.228;-2.322;2022-11-18T12:54:37;12.30;69.00
65406;DHT22;52016;51.228;-2.322;2022-11-18T12:58:23;12.20;69.40
65406;DHT22;52016;51.228;-2.322;2022-11-18T13:02:17;12.20;69.30
65406;DHT22;52016;51.228;-2.322;2022-11-18T13:06:27;12.10;69.10
65406;DHT22;52016;51.228;-2.322;2022-11-18T13:10:22;12.10;68.70
65406;DHT22;52016;51.228;-2.322;2022-11-18T13:14:05;12.10;69.10
65406;DHT22;52016;51.228;-2.322;2022-11-18T13:18:16;12.10;69.40
65406;DHT22;52016;51.228;-2.322;2022-11-18T13:22:00;12.10;69.40
65406;DHT22;52016;51.228;-2.322;2022-11-18T13:30:00;12.10;69.30
65406;DHT22;52016;51.228;-2.322;2022-11-18T13:33:43;12.30;69.80
65406;DHT22;52016;51.228;-2.322;2022-11-18T13:37:28;12.40;70.00
65406;DHT22;52016;51.228;-2.322;2022-11-18T13:41:19;12.60;70.20
65406;DHT22;52016;51.228;-2.322;2022-11-18T13:45:05;12.60;69.60
65406;DHT22;52016;51.228;-2.322;2022-11-18T13:48:57;12.60;69.20
65406;DHT22;52016;51.228;-2.322;2022-11-18T13:52:51;12.60;69.00
65406;DHT22;52016;51.228;-2.322;2022-11-18T13:56:38;12.60;69.00
65406;DHT22;52016;51.228;-2.322;2022-11-18T14:00:24;12.70;68.60
65406;DHT22;52016;51.228;-2.322;2022-11-18T14:04:20;12.70;68.10
65406;DHT22;52016;51.228;-2.322;2022-11-18T14:08:17;12.80;67.70
65406;DHT22;52016;51.228;-2.322;2022-11-18T14:12:27;12.60;67.40
65406;DHT22;52016;51.228;-2.322;2022-11-18T14:20:06;12.30;67.30
65406;DHT22;52016;51.228;-2.322;2022-11-18T14:23:49;12.10;67.50
65406;DHT22;52016;51.228;-2.322;2022-11-18T14:31:24;11.90;67.90
65406;DHT22;52016;51.228;-2.322;2022-11-18T14:35:09;11.90;68.10
65406;DHT22;52016;51.228;-2.322;2022-11-18T14:38:51;11.80;68.00
65406;DHT22;52016;51.228;-2.322;2022-11-18T14:42:53;11.80;68.00
65406;DHT22;52016;51.228;-2.322;2022-11-18T14:46:36;11.70;68.00
65406;DHT22;52016;51.228;-2.322;2022-11-18T14:50:18;11.70;68.20
65406;DHT22;52016;51.228;-2.322;2022-11-18T14:54:00;11.60;68.00
65406;DHT22;52016;51.228;-2.322;2022-11-18T14:57:42;11.60;68.20
65406;DHT22;52016;51.228;-2.322;2022-11-18T15:01:24;11.60;68.10
65406;DHT22;52016;51.228;-2.322;2022-11-18T15:05:11;11.50;68.20
65406;DHT22;52016;51.228;-2.322;2022-11-18T15:08:53;11.50;68.20
65406;DHT22;52016;51.228;-2.322;2022-11-18T15:12:35;11.40;68.40
65406;DHT22;52016;51.228;-2.322;2022-11-18T15:16:22;11.40;68.50
65406;DHT22;52016;51.228;-2.322;2022-11-18T15:20:04;11.40;68.60
65406;DHT22;52016;51.228;-2.322;2022-11-18T15:23:47;11.40;68.40
65406;DHT22;52016;51.228;-2.322;2022-11-18T15:27:29;11.40;68.50
65406;DHT22;52016;51.228;-2.322;2022-11-18T15:31:11;11.40;68.40
65406;DHT22;52016;51.228;-2.322;2022-11-18T15:34:52;11.30;68.30
65406;DHT22;52016;51.228;-2.322;2022-11-18T15:38:34;11.30;68.40
65406;DHT22;52016;51.228;-2.322;2022-11-18T15:42:17;11.10;68.40
65406;DHT22;52016;51.228;-2.322;2022-11-18T15:46:04;11.10;68.30
65406;DHT22;52016;51.228;-2.322;2022-11-18T15:49:45;10.90;68.30
65406;DHT22;52016;51.228;-2.322;2022-11-18T15:53:27;10.90;68.40
65406;DHT22;52016;51.228;-2.322;2022-11-18T15:57:09;10.80;68.40
65406;DHT22;52016;51.228;-2.322;2022-11-18T16:00:51;10.80;68.50
65406;DHT22;52016;51.228;-2.322;2022-11-18T16:04:33;10.60;68.60
65406;DHT22;52016;51.228;-2.322;2022-11-18T16:08:15;10.50;68.60
65406;DHT22;52016;51.228;-2.322;2022-11-18T16:11:56;10.40;68.70
65406;DHT22;52016;51.228;-2.322;2022-11-18T16:15:57;10.30;68.70
65406;DHT22;52016;51.228;-2.322;2022-11-18T16:19:39;10.20;68.80
65406;DHT22;52016;51.228;-2.322;2022-11-18T16:23:20;10.20;68.80
65406;DHT22;52016;51.228;-2.322;2022-11-18T16:27:02;10.10;68.90
65406;DHT22;52016;51.228;-2.322;2022-11-18T16:30:49;10.00;69.00
65406;DHT22;52016;51.228;-2.322;2022-11-18T16:34:49;9.90;69.00
65406;DHT22;52016;51.228;-2.322;2022-11-18T16:38:37;9.90;69.10
65406;DHT22;52016;51.228;-2.322;2022-11-18T16:42:18;9.80;69.10
65406;DHT22;52016;51.228;-2.322;2022-11-18T16:46:00;9.70;69.20
65406;DHT22;52016;51.228;-2.322;2022-11-18T16:49:42;9.60;69.30
65406;DHT22;52016;51.228;-2.322;2022-11-18T16:53:24;9.50;69.40
65406;DHT22;52016;51.228;-2.322;2022-11-18T16:57:06;9.50;69.40
65406;DHT22;52016;51.228;-2.322;2022-11-18T17:00:49;9.40;69.50
65406;DHT22;52016;51.228;-2.322;2022-11-18T17:04:50;9.40;69.60
65406;DHT22;52016;51.228;-2.322;2022-11-18T17:08:33;9.30;69.60
65406;DHT22;52016;51.228;-2.322;2022-11-18T17:12:15;9.30;69.70
65406;DHT22;52016;51.228;-2.322;2022-11-18T17:15:57;9.30;69.70
65406;DHT22;52016;51.228;-2.322;2022-11-18T17:19:39;9.20;69.70
65406;DHT22;52016;51.228;-2.322;2022-11-18T17:23:20;9.10;69.70
65406;DHT22;52016;51.228;-2.322;2022-11-18T17:27:02;9.10;69.70
65406;DHT22;52016;51.228;-2.322;2022-11-18T17:30:44;9.00;69.80
65406;DHT22;52016;51.228;-2.322;2022-11-18T17:34:30;9.00;69.80
65406;DHT22;52016;51.228;-2.322;2022-11-18T17:38:12;8.90;69.80
65406;DHT22;52016;51.228;-2.322;2022-11-18T17:41:54;8.90;69.80
65406;DHT22;52016;51.228;-2.322;2022-11-18T17:45:56;8.90;69.90
65406;DHT22;52016;51.228;-2.322;2022-11-18T17:49:38;8.80;69.90
65406;DHT22;52016;51.228;-2.322;2022-11-18T17:53:20;8.80;70.00
65406;DHT22;52016;51.228;-2.322;2022-11-18T17:57:02;8.70;70.00
65406;DHT22;52016;51.228;-2.322;2022-11-18T18:00:43;8.70;70.10
65406;DHT22;52016;51.228;-2.322;2022-11-18T18:04:25;8.70;70.10
65406;DHT22;52016;51.228;-2.322;2022-11-18T18:08:07;8.60;70.10
65406;DHT22;52016;51.228;-2.322;2022-11-18T18:11:50;8.60;70.20
65406;DHT22;52016;51.228;-2.322;2022-11-18T18:15:32;8.60;70.20
65406;DHT22;52016;51.228;-2.322;2022-11-18T18:19:16;8.50;70.20
65406;DHT22;52016;51.228;-2.322;2022-11-18T18:22:58;8.40;70.30
65406;DHT22;52016;51.228;-2.322;2022-11-18T18:26:40;8.40;70.30
65406;DHT22;52016;51.228;-2.322;2022-11-18T18:30:22;8.40;70.40
65406;DHT22;52016;51.228;-2.322;2022-11-18T18:34:04;8.30;70.40
65406;DHT22;52016;51.228;-2.322;2022-11-18T18:37:46;8.30;70.50
65406;DHT22;52016;51.228;-2.322;2022-11-18T18:41:27;8.30;70.60
65406;DHT22;52016;51.228;-2.322;2022-11-18T18:45:09;8.20;70.60
65406;DHT22;52016;51.228;-2.322;2022-11-18T18:49:14;8.20;70.80
65406;DHT22;52016;51.228;-2.322;2022-11-18T18:52:56;8.10;70.80
65406;DHT22;52016;51.228;-2.322;2022-11-18T18:56:38;8.10;70.90
65406;DHT22;52016;51.228;-2.322;2022-11-18T19:00:20;8.10;71.00
65406;DHT22;52016;51.228;-2.322;2022-11-18T19:04:04;8.10;71.10
65406;DHT22;52016;51.228;-2.322;2022-11-18T19:07:46;8.00;71.10
65406;DHT22;52016;51.228;-2.322;2022-11-18T19:11:27;8.00;71.20
65406;DHT22;52016;51.228;-2.322;2022-11-18T19:15:28;7.90;71.30
65406;DHT22;52016;51.228;-2.322;2022-11-18T19:19:17;7.90;71.30
65406;DHT22;52016;51.228;-2.322;2022-11-18T19:23:05;7.90;71.50
65406;DHT22;52016;51.228;-2.322;2022-11-18T19:26:51;7.80;71.50
65406;DHT22;52016;51.228;-2.322;2022-11-18T19:30:33;7.80;71.60
65406;DHT22;52016;51.228;-2.322;2022-11-18T19:34:14;7.80;71.70
65406;DHT22;52016;51.228;-2.322;2022-11-18T19:37:57;7.70;71.80
65406;DHT22;52016;51.228;-2.322;2022-11-18T19:41:39;7.70;71.90
65406;DHT22;52016;51.228;-2.322;2022-11-18T19:45:20;7.60;72.00
65406;DHT22;52016;51.228;-2.322;2022-11-18T19:49:02;7.60;72.10
65406;DHT22;52016;51.228;-2.322;2022-11-18T19:52:46;7.60;72.10
65406;DHT22;52016;51.228;-2.322;2022-11-18T19:56:28;7.60;72.20
65406;DHT22;52016;51.228;-2.322;2022-11-18T20:00:10;7.50;72.20
65406;DHT22;52016;51.228;-2.322;2022-11-18T20:03:54;7.60;72.20
65406;DHT22;52016;51.228;-2.322;2022-11-18T20:07:36;7.50;72.20
65406;DHT22;52016;51.228;-2.322;2022-11-18T20:11:19;7.50;72.30
65406;DHT22;52016;51.228;-2.322;2022-11-18T20:15:01;7.40;72.50
65406;DHT22;52016;51.228;-2.322;2022-11-18T20:18:44;7.40;72.50
65406;DHT22;52016;51.228;-2.322;2022-11-18T20:22:28;7.40;72.50
65406;DHT22;52016;51.228;-2.322;2022-11-18T20:26:11;7.40;72.60
65406;DHT22;52016;51.228;-2.322;2022-11-18T20:29:53;7.40;72.70
65406;DHT22;52016;51.228;-2.322;2022-11-18T20:33:38;7.30;72.70
65406;DHT22;52016;51.228;-2.322;2022-11-18T20:37:21;7.30;72.70
65406;DHT22;52016;51.228;-2.322;2022-11-18T20:41:10;7.30;72.70
65406;DHT22;52016;51.228;-2.322;2022-11-18T20:44:52;7.30;72.90
65406;DHT22;52016;51.228;-2.322;2022-11-18T20:48:34;7.30;73.00
65406;DHT22;52016;51.228;-2.322;2022-11-18T20:52:16;7.20;73.00
65406;DHT22;52016;51.228;-2.322;2022-11-18T20:55:57;7.20;73.10
65406;DHT22;52016;51.228;-2.322;2022-11-18T20:59:39;7.10;73.10
65406;DHT22;52016;51.228;-2.322;2022-11-18T21:03:21;7.10;73.20
65406;DHT22;52016;51.228;-2.322;2022-11-18T21:07:03;7.10;73.30
65406;DHT22;52016;51.228;-2.322;2022-11-18T21:10:45;7.00;73.40
65406;DHT22;52016;51.228;-2.322;2022-11-18T21:14:27;7.10;73.50
65406;DHT22;52016;51.228;-2.322;2022-11-18T21:18:08;7.00;73.50
65406;DHT22;52016;51.228;-2.322;2022-11-18T21:21:50;7.00;73.60
65406;DHT22;52016;51.228;-2.322;2022-11-18T21:25:33;7.00;73.90
65406;DHT22;52016;51.228;-2.322;2022-11-18T21:29:16;7.00;73.90
65406;DHT22;52016;51.228;-2.322;2022-11-18T21:32:58;7.10;74.00
65406;DHT22;52016;51.228;-2.322;2022-11-18T21:36:40;7.00;74.00
65406;DHT22;52016;51.228;-2.322;2022-11-18T21:40:28;7.00;74.00
65406;DHT22;52016;51.228;-2.322;2022-11-18T21:44:11;7.10;74.50
65406;DHT22;52016;51.228;-2.322;2022-11-18T21:47:54;7.00;74.10
65406;DHT22;52016;51.228;-2.322;2022-11-18T21:51:36;7.00;74.20
65406;DHT22;52016;51.228;-2.322;2022-11-18T21:55:17;7.00;74.20
65406;DHT22;52016;51.228;-2.322;2022-11-18T21:59:00;7.00;74.40
65406;DHT22;52016;51.228;-2.322;2022-11-18T22:02:42;7.00;74.40
65406;DHT22;52016;51.228;-2.322;2022-11-18T22:06:25;7.00;74.60
65406;DHT22;52016;51.228;-2.322;2022-11-18T22:10:10;7.00;74.60
65406;DHT22;52016;51.228;-2.322;2022-11-18T22:13:52;6.90;74.60
65406;DHT22;52016;51.228;-2.322;2022-11-18T22:17:34;6.90;74.60
65406;DHT22;52016;51.228;-2.322;2022-11-18T22:21:20;6.90;74.70
65406;DHT22;52016;51.228;-2.322;2022-11-18T22:25:02;6.90;74.70
65406;DHT22;52016;51.228;-2.322;2022-11-18T22:28:44;6.90;74.60
65406;DHT22;52016;51.228;-2.322;2022-11-18T22:32:26;6.80;74.60
65406;DHT22;52016;51.228;-2.322;2022-11-18T22:36:11;6.80;74.70
65406;DHT22;52016;51.228;-2.322;2022-11-18T22:39:56;6.80;74.60
65406;DHT22;52016;51.228;-2.322;2022-11-18T22:43:37;6.80;74.70
65406;DHT22;52016;51.228;-2.322;2022-11-18T22:47:19;6.80;74.80
65406;DHT22;52016;51.228;-2.322;2022-11-18T22:51:03;6.80;74.80
65406;DHT22;52016;51.228;-2.322;2022-11-18T22:54:45;6.70;74.70
65406;DHT22;52016;51.228;-2.322;2022-11-18T22:58:27;6.70;74.80
65406;DHT22;52016;51.228;-2.322;2022-11-18T23:02:09;6.70;74.80
65406;DHT22;52016;51.228;-2.322;2022-11-18T23:05:51;6.70;74.80
65406;DHT22;52016;51.228;-2.322;2022-11-18T23:09:33;6.70;75.00
65406;DHT22;52016;51.228;-2.322;2022-11-18T23:13:15;6.70;75.00
65406;DHT22;52016;51.228;-2.322;2022-11-18T23:17:15;6.70;75.10
65406;DHT22;52016;51.228;-2.322;2022-11-18T23:21:00;6.70;75.20
65406;DHT22;52016;51.228;-2.322;2022-11-18T23:24:42;6.70;75.20
65406;DHT22;52016;51.228;-2.322;2022-11-18T23:28:24;6.60;75.20
65406;DHT22;52016;51.228;-2.322;2022-11-18T23:32:06;6.60;75.20
65406;DHT22;52016;51.228;-2.322;2022-11-18T23:35:56;6.60;75.20
65406;DHT22;52016;51.228;-2.322;2022-11-18T23:39:38;6.60;75.40
65406;DHT22;52016;51.228;-2.322;2022-11-18T23:43:20;6.60;75.50
65406;DHT22;52016;51.228;-2.322;2022-11-18T23:47:01;6.60;75.50
65406;DHT22;52016;51.228;-2.322;2022-11-18T23:50:57;6.60;75.40
65406;DHT22;52016;51.228;-2.322;2022-11-18T23:54:39;6.50;75.70
65406;DHT22;52016;51.228;-2.322;2022-11-18T23:58:21;6.50;75.40
